RNLT055 EHEH-EHLW
Flight info
| Callsign | RNLT055 |
|---|---|
| Flight time | 0h 48m |
| Altitude | 30000 |
| Route | NYKER DCT EHLE DCT ENKOS DCT LWD DCT EEL |
| Aircraft | A333/H-SDE3GHIJ2J3J5M1RVWXY/LB2D1 |
Departure
| Time | 2026-04-25 14:22 |
|---|---|
| Airport | Eindhoven Airport (EHEH) |
Arrival
| Time | 2026-04-25 15:10 |
|---|---|
| Airport | Leeuwarden Air Base (EHLW) |
| Time | Latitude | Longitude | Altitude | Speed | Heading |
|---|---|---|---|---|---|
| 2026-04-25 14:12 | 51.45512 | 5.37360 | 79 ft | 0 kts | 305° |
| 2026-04-25 14:15 | 51.45511 | 5.37361 | 79 ft | 0 kts | 305° |
| 2026-04-25 14:15 | 51.45494 | 5.37400 | 85 ft | 0 kts | 305° |
| 2026-04-25 14:16 | 51.45495 | 5.37400 | 85 ft | 0 kts | 305° |
| 2026-04-25 14:17 | 51.45497 | 5.37391 | 87 ft | 1 kts | 297° |
| 2026-04-25 14:17 | 51.45498 | 5.37376 | 67 ft | 3 kts | 277° |
| 2026-04-25 14:17 | 51.45477 | 5.37317 | 67 ft | 9 kts | 225° |
| 2026-04-25 14:17 | 51.45407 | 5.37235 | 69 ft | 15 kts | 210° |
| 2026-04-25 14:18 | 51.45360 | 5.37243 | 72 ft | 9 kts | 152° |
| 2026-04-25 14:18 | 51.45309 | 5.37348 | 69 ft | 16 kts | 126° |
| 2026-04-25 14:18 | 51.45261 | 5.37421 | 67 ft | 4 kts | 171° |
| 2026-04-25 14:18 | 51.45208 | 5.37391 | 72 ft | 12 kts | 212° |
| 2026-04-25 14:19 | 51.45116 | 5.37287 | 67 ft | 20 kts | 214° |
| 2026-04-25 14:19 | 51.44989 | 5.37143 | 69 ft | 24 kts | 215° |
| 2026-04-25 14:19 | 51.44834 | 5.36970 | 69 ft | 30 kts | 214° |
| 2026-04-25 14:19 | 51.44646 | 5.36761 | 71 ft | 35 kts | 215° |
| 2026-04-25 14:20 | 51.44442 | 5.36533 | 69 ft | 27 kts | 216° |
| 2026-04-25 14:20 | 51.44391 | 5.36476 | 67 ft | 28 kts | 215° |
| 2026-04-25 14:20 | 51.44086 | 5.36136 | 70 ft | 36 kts | 214° |
| 2026-04-25 14:20 | 51.43978 | 5.36108 | 69 ft | 14 kts | 139° |
| 2026-04-25 14:21 | 51.43934 | 5.36235 | 72 ft | 3 kts | 86° |
| 2026-04-25 14:21 | 51.43956 | 5.36263 | 73 ft | 12 kts | 38° |
| 2026-04-25 14:21 | 51.44216 | 5.36558 | 84 ft | 84 kts | 35° |
| 2026-04-25 14:21 | 51.44898 | 5.37320 | 83 ft | 153 kts | 34° |
| 2026-04-25 14:22 | 51.45532 | 5.38039 | 356 ft | 174 kts | 34° |
| 2026-04-25 14:22 | 51.46471 | 5.39131 | 1577 ft | 163 kts | 34° |
| 2026-04-25 14:22 | 51.47383 | 5.40169 | 2740 ft | 160 kts | 30° |
| 2026-04-25 14:22 | 51.48326 | 5.41218 | 3733 ft | 174 kts | 31° |
| 2026-04-25 14:23 | 51.49457 | 5.42353 | 4312 ft | 210 kts | 22° |
| 2026-04-25 14:23 | 51.50932 | 5.42908 | 4670 ft | 230 kts | 355° |
| 2026-04-25 14:23 | 51.52568 | 5.42345 | 5017 ft | 252 kts | 341° |
| 2026-04-25 14:23 | 51.54278 | 5.41362 | 5452 ft | 268 kts | 338° |
| 2026-04-25 14:24 | 51.56055 | 5.40292 | 6133 ft | 276 kts | 338° |
| 2026-04-25 14:24 | 51.57878 | 5.39215 | 6936 ft | 281 kts | 339° |
| 2026-04-25 14:24 | 51.59781 | 5.38414 | 7757 ft | 285 kts | 346° |
| 2026-04-25 14:24 | 51.61740 | 5.37823 | 8607 ft | 288 kts | 348° |
| 2026-04-25 14:25 | 51.63728 | 5.37266 | 9461 ft | 292 kts | 348° |
| 2026-04-25 14:25 | 51.65739 | 5.36710 | 10267 ft | 296 kts | 348° |
| 2026-04-25 14:25 | 51.67778 | 5.36143 | 10997 ft | 300 kts | 348° |
| 2026-04-25 14:25 | 51.69149 | 5.35759 | 11501 ft | 303 kts | 348° |
| 2026-04-25 14:26 | 51.71945 | 5.34976 | 12506 ft | 307 kts | 347° |
| 2026-04-25 14:26 | 51.74063 | 5.34380 | 13268 ft | 311 kts | 347° |
| 2026-04-25 14:26 | 51.76210 | 5.33775 | 13989 ft | 315 kts | 347° |
| 2026-04-25 14:26 | 51.78387 | 5.33162 | 14627 ft | 320 kts | 347° |
| 2026-04-25 14:27 | 51.80593 | 5.32551 | 15302 ft | 324 kts | 349° |
| 2026-04-25 14:27 | 51.82842 | 5.32119 | 15995 ft | 327 kts | 352° |
| 2026-04-25 14:27 | 51.85119 | 5.31781 | 16675 ft | 331 kts | 352° |
| 2026-04-25 14:27 | 51.87425 | 5.31456 | 17344 ft | 334 kts | 352° |
| 2026-04-25 14:28 | 51.89755 | 5.31128 | 18015 ft | 337 kts | 352° |
| 2026-04-25 14:28 | 51.92105 | 5.30796 | 18659 ft | 341 kts | 352° |
| 2026-04-25 14:28 | 51.94474 | 5.30460 | 19269 ft | 342 kts | 352° |
| 2026-04-25 14:28 | 51.96848 | 5.30097 | 19876 ft | 343 kts | 351° |
| 2026-04-25 14:29 | 51.99230 | 5.29684 | 20467 ft | 345 kts | 351° |
| 2026-04-25 14:29 | 52.01626 | 5.29258 | 21038 ft | 348 kts | 351° |
| 2026-04-25 14:29 | 52.04045 | 5.28827 | 21612 ft | 350 kts | 350° |
| 2026-04-25 14:29 | 52.06482 | 5.28448 | 22173 ft | 354 kts | 354° |
| 2026-04-25 14:30 | 52.08956 | 5.28618 | 22722 ft | 361 kts | 5° |
| 2026-04-25 14:30 | 52.13668 | 5.31759 | 23776 ft | 379 kts | 32° |
| 2026-04-25 14:30 | 52.15607 | 5.34750 | 24184 ft | 390 kts | 45° |
| 2026-04-25 14:31 | 52.17282 | 5.38257 | 24632 ft | 395 kts | 50° |
| 2026-04-25 14:31 | 52.18867 | 5.41929 | 25062 ft | 397 kts | 49° |
| 2026-04-25 14:31 | 52.20638 | 5.45368 | 25500 ft | 395 kts | 41° |
| 2026-04-25 14:31 | 52.22673 | 5.48251 | 25898 ft | 391 kts | 30° |
| 2026-04-25 14:32 | 52.25012 | 5.50464 | 26299 ft | 387 kts | 19° |
| 2026-04-25 14:32 | 52.27550 | 5.51849 | 26695 ft | 383 kts | 7° |
| 2026-04-25 14:32 | 52.30185 | 5.52372 | 27094 ft | 380 kts | 358° |
| 2026-04-25 14:32 | 52.32834 | 5.52416 | 27491 ft | 381 kts | 355° |
| 2026-04-25 14:33 | 52.35486 | 5.52277 | 27891 ft | 382 kts | 353° |
| 2026-04-25 14:33 | 52.38143 | 5.52054 | 28272 ft | 384 kts | 353° |
| 2026-04-25 14:33 | 52.40808 | 5.51730 | 28670 ft | 384 kts | 349° |
| 2026-04-25 14:33 | 52.43430 | 5.50938 | 29053 ft | 383 kts | 342° |
| 2026-04-25 14:34 | 52.45951 | 5.49577 | 29423 ft | 382 kts | 334° |
| 2026-04-25 14:34 | 52.48319 | 5.47610 | 29736 ft | 382 kts | 326° |
| 2026-04-25 14:34 | 52.52747 | 5.42685 | 29371 ft | 383 kts | 322° |
| 2026-04-25 14:35 | 52.54881 | 5.40117 | 28964 ft | 379 kts | 322° |
| 2026-04-25 14:35 | 52.56983 | 5.37544 | 28565 ft | 375 kts | 322° |
| 2026-04-25 14:35 | 52.59081 | 5.35023 | 28169 ft | 372 kts | 324° |
| 2026-04-25 14:35 | 52.61297 | 5.32862 | 27757 ft | 370 kts | 331° |
| 2026-04-25 14:36 | 52.63659 | 5.31202 | 27367 ft | 369 kts | 339° |
| 2026-04-25 14:36 | 52.66135 | 5.30118 | 27003 ft | 368 kts | 347° |
| 2026-04-25 14:36 | 52.68684 | 5.29659 | 26608 ft | 369 kts | 355° |
| 2026-04-25 14:36 | 52.71242 | 5.29846 | 26238 ft | 369 kts | 3° |
| 2026-04-25 14:37 | 52.73767 | 5.30679 | 25866 ft | 371 kts | 12° |
| 2026-04-25 14:37 | 52.76209 | 5.32132 | 25207 ft | 374 kts | 20° |
| 2026-04-25 14:37 | 52.78511 | 5.34007 | 24379 ft | 375 kts | 23° |
| 2026-04-25 14:37 | 52.80808 | 5.36072 | 23543 ft | 375 kts | 25° |
| 2026-04-25 14:38 | 52.83065 | 5.38199 | 22665 ft | 372 kts | 26° |
| 2026-04-25 14:38 | 52.85297 | 5.40332 | 21840 ft | 368 kts | 26° |
| 2026-04-25 14:38 | 52.87498 | 5.42435 | 21022 ft | 364 kts | 25° |
| 2026-04-25 14:38 | 52.89684 | 5.44509 | 20256 ft | 359 kts | 25° |
| 2026-04-25 14:39 | 52.91844 | 5.46542 | 19509 ft | 355 kts | 25° |
| 2026-04-25 14:39 | 52.93980 | 5.48543 | 18764 ft | 351 kts | 24° |
| 2026-04-25 14:39 | 52.96100 | 5.50521 | 17967 ft | 348 kts | 24° |
| 2026-04-25 14:39 | 52.98199 | 5.52479 | 17149 ft | 344 kts | 24° |
| 2026-04-25 14:40 | 53.00272 | 5.54413 | 16386 ft | 339 kts | 24° |
| 2026-04-25 14:40 | 53.02316 | 5.56324 | 15633 ft | 335 kts | 24° |
| 2026-04-25 14:40 | 53.04335 | 5.58213 | 14899 ft | 331 kts | 24° |
| 2026-04-25 14:40 | 53.06333 | 5.60085 | 14192 ft | 328 kts | 24° |
| 2026-04-25 14:41 | 53.08302 | 5.61935 | 13451 ft | 323 kts | 24° |
| 2026-04-25 14:41 | 53.10244 | 5.63760 | 12664 ft | 319 kts | 24° |
| 2026-04-25 14:41 | 53.12162 | 5.65577 | 11889 ft | 316 kts | 25° |
| 2026-04-25 14:41 | 53.13995 | 5.67577 | 11173 ft | 314 kts | 30° |
| 2026-04-25 14:42 | 53.15691 | 5.69858 | 10451 ft | 313 kts | 37° |
| 2026-04-25 14:42 | 53.16720 | 5.71535 | 9970 ft | 314 kts | 41° |
| 2026-04-25 14:42 | 53.18538 | 5.75344 | 8937 ft | 314 kts | 51° |
| 2026-04-25 14:42 | 53.19608 | 5.78453 | 8205 ft | 314 kts | 59° |
| 2026-04-25 14:43 | 53.20418 | 5.81776 | 7813 ft | 304 kts | 66° |
| 2026-04-25 14:43 | 53.20945 | 5.85097 | 7563 ft | 289 kts | 73° |
| 2026-04-25 14:43 | 53.21223 | 5.88343 | 7341 ft | 276 kts | 80° |
| 2026-04-25 14:43 | 53.21283 | 5.91490 | 7098 ft | 266 kts | 87° |
| 2026-04-25 14:44 | 53.21177 | 5.94524 | 6906 ft | 251 kts | 90° |
| 2026-04-25 14:44 | 53.21024 | 5.97338 | 6578 ft | 244 kts | 90° |
| 2026-04-25 14:44 | 53.20846 | 6.00138 | 6163 ft | 241 kts | 91° |
| 2026-04-25 14:44 | 53.20661 | 6.02872 | 5930 ft | 231 kts | 91° |
| 2026-04-25 14:45 | 53.20599 | 6.03764 | 5866 ft | 227 kts | 91° |
| 2026-04-25 14:45 | 53.20309 | 6.07994 | 5397 ft | 217 kts | 90° |
| 2026-04-25 14:45 | 53.20145 | 6.10485 | 5067 ft | 215 kts | 90° |
| 2026-04-25 14:45 | 53.19985 | 6.12956 | 4712 ft | 213 kts | 90° |
| 2026-04-25 14:46 | 53.19830 | 6.15404 | 4368 ft | 212 kts | 90° |
| 2026-04-25 14:46 | 53.19674 | 6.17850 | 4010 ft | 212 kts | 91° |
| 2026-04-25 14:46 | 53.19519 | 6.20283 | 3672 ft | 210 kts | 91° |
| 2026-04-25 14:46 | 53.19363 | 6.22698 | 3345 ft | 209 kts | 91° |
| 2026-04-25 14:47 | 53.19207 | 6.25090 | 3001 ft | 207 kts | 92° |
| 2026-04-25 14:47 | 53.19102 | 6.26701 | 2771 ft | 206 kts | 92° |
| 2026-04-25 14:47 | 53.18898 | 6.29818 | 2371 ft | 201 kts | 93° |
| 2026-04-25 14:47 | 53.18747 | 6.32098 | 2175 ft | 192 kts | 93° |
| 2026-04-25 14:48 | 53.18602 | 6.34234 | 2164 ft | 188 kts | 92° |
| 2026-04-25 14:48 | 53.18451 | 6.36632 | 2202 ft | 228 kts | 93° |
| 2026-04-25 14:48 | 53.18278 | 6.39415 | 2163 ft | 241 kts | 94° |
| 2026-04-25 14:48 | 53.18099 | 6.42074 | 2152 ft | 222 kts | 94° |
| 2026-04-25 14:49 | 53.17928 | 6.44526 | 2156 ft | 205 kts | 94° |
| 2026-04-25 14:49 | 53.17766 | 6.46849 | 2163 ft | 200 kts | 94° |
| 2026-04-25 14:49 | 53.17609 | 6.49146 | 2164 ft | 199 kts | 94° |
| 2026-04-25 14:49 | 53.17453 | 6.51441 | 2164 ft | 199 kts | 93° |
| 2026-04-25 14:50 | 53.17298 | 6.53748 | 2163 ft | 201 kts | 93° |
| 2026-04-25 14:50 | 53.17153 | 6.56061 | 2159 ft | 200 kts | 91° |
| 2026-04-25 14:50 | 53.17102 | 6.58375 | 2158 ft | 199 kts | 86° |
| 2026-04-25 14:50 | 53.17186 | 6.60630 | 2153 ft | 197 kts | 79° |
| 2026-04-25 14:51 | 53.17424 | 6.62864 | 2156 ft | 195 kts | 71° |
| 2026-04-25 14:51 | 53.17820 | 6.65015 | 2163 ft | 194 kts | 64° |
| 2026-04-25 14:51 | 53.18368 | 6.67050 | 2159 ft | 192 kts | 57° |
| 2026-04-25 14:51 | 53.19057 | 6.68941 | 2159 ft | 190 kts | 49° |
| 2026-04-25 14:52 | 53.19868 | 6.70654 | 2157 ft | 187 kts | 41° |
| 2026-04-25 14:52 | 53.20783 | 6.72174 | 2157 ft | 184 kts | 36° |
| 2026-04-25 14:52 | 53.21780 | 6.73484 | 2154 ft | 181 kts | 29° |
| 2026-04-25 14:52 | 53.22494 | 6.74249 | 2157 ft | 180 kts | 24° |
| 2026-04-25 14:53 | 53.23978 | 6.75467 | 2160 ft | 179 kts | 15° |
| 2026-04-25 14:53 | 53.25145 | 6.76125 | 2158 ft | 176 kts | 9° |
| 2026-04-25 14:53 | 53.26330 | 6.76561 | 2160 ft | 173 kts | 2° |
| 2026-04-25 14:53 | 53.27520 | 6.76778 | 2153 ft | 172 kts | 356° |
| 2026-04-25 14:54 | 53.28708 | 6.76778 | 2158 ft | 170 kts | 352° |
| 2026-04-25 14:54 | 53.29880 | 6.76565 | 2160 ft | 169 kts | 345° |
| 2026-04-25 14:54 | 53.31019 | 6.76153 | 2153 ft | 166 kts | 340° |
| 2026-04-25 14:54 | 53.32113 | 6.75550 | 2161 ft | 165 kts | 335° |
| 2026-04-25 14:55 | 53.33153 | 6.74767 | 2156 ft | 164 kts | 330° |
| 2026-04-25 14:55 | 53.34138 | 6.73811 | 2158 ft | 164 kts | 324° |
| 2026-04-25 14:55 | 53.35056 | 6.72694 | 2158 ft | 162 kts | 319° |
| 2026-04-25 14:55 | 53.35894 | 6.71436 | 2156 ft | 162 kts | 314° |
| 2026-04-25 14:56 | 53.36652 | 6.70039 | 2163 ft | 162 kts | 309° |
| 2026-04-25 14:56 | 53.37322 | 6.68519 | 2155 ft | 163 kts | 304° |
| 2026-04-25 14:56 | 53.37895 | 6.66886 | 2156 ft | 163 kts | 299° |
| 2026-04-25 14:56 | 53.38364 | 6.65163 | 2161 ft | 162 kts | 293° |
| 2026-04-25 14:57 | 53.38726 | 6.63373 | 2156 ft | 163 kts | 288° |
| 2026-04-25 14:57 | 53.38979 | 6.61516 | 2158 ft | 164 kts | 283° |
| 2026-04-25 14:57 | 53.39117 | 6.59623 | 2157 ft | 164 kts | 277° |
| 2026-04-25 14:57 | 53.39139 | 6.57699 | 2165 ft | 166 kts | 272° |
| 2026-04-25 14:58 | 53.39043 | 6.55788 | 2162 ft | 168 kts | 266° |
| 2026-04-25 14:58 | 53.38821 | 6.53855 | 2165 ft | 170 kts | 261° |
| 2026-04-25 14:58 | 53.38475 | 6.51963 | 2169 ft | 170 kts | 255° |
| 2026-04-25 14:58 | 53.37998 | 6.50105 | 2164 ft | 173 kts | 249° |
| 2026-04-25 14:59 | 53.37400 | 6.48335 | 2164 ft | 176 kts | 243° |
| 2026-04-25 14:59 | 53.36688 | 6.46683 | 2165 ft | 178 kts | 238° |
| 2026-04-25 14:59 | 53.35851 | 6.45137 | 2166 ft | 180 kts | 230° |
| 2026-04-25 14:59 | 53.34905 | 6.43749 | 2167 ft | 182 kts | 224° |
| 2026-04-25 15:00 | 53.33859 | 6.42537 | 2164 ft | 184 kts | 218° |
| 2026-04-25 15:00 | 53.32721 | 6.41522 | 2168 ft | 187 kts | 211° |
| 2026-04-25 15:00 | 53.31504 | 6.40728 | 2167 ft | 189 kts | 204° |
| 2026-04-25 15:00 | 53.30234 | 6.40136 | 2167 ft | 190 kts | 200° |
| 2026-04-25 15:01 | 53.28967 | 6.39526 | 2168 ft | 189 kts | 203° |
| 2026-04-25 15:01 | 53.27737 | 6.38784 | 2164 ft | 187 kts | 208° |
| 2026-04-25 15:01 | 53.26570 | 6.37856 | 2160 ft | 184 kts | 216° |
| 2026-04-25 15:01 | 53.25492 | 6.36724 | 2162 ft | 182 kts | 221° |
| 2026-04-25 15:02 | 53.24515 | 6.35393 | 2167 ft | 180 kts | 229° |
| 2026-04-25 15:02 | 53.23654 | 6.33895 | 2169 ft | 177 kts | 236° |
| 2026-04-25 15:02 | 53.22916 | 6.32260 | 2168 ft | 176 kts | 241° |
| 2026-04-25 15:02 | 53.22299 | 6.30506 | 2169 ft | 175 kts | 248° |
| 2026-04-25 15:03 | 53.21808 | 6.28669 | 2171 ft | 172 kts | 255° |
| 2026-04-25 15:03 | 53.21445 | 6.26786 | 2173 ft | 170 kts | 260° |
| 2026-04-25 15:03 | 53.21207 | 6.24862 | 2170 ft | 169 kts | 265° |
| 2026-04-25 15:03 | 53.21091 | 6.22919 | 2173 ft | 168 kts | 271° |
| 2026-04-25 15:04 | 53.21098 | 6.20982 | 2173 ft | 166 kts | 276° |
| 2026-04-25 15:04 | 53.21220 | 6.19075 | 2173 ft | 166 kts | 281° |
| 2026-04-25 15:04 | 53.21403 | 6.17178 | 2174 ft | 166 kts | 282° |
| 2026-04-25 15:04 | 53.21596 | 6.15284 | 2172 ft | 165 kts | 282° |
| 2026-04-25 15:05 | 53.21787 | 6.13397 | 2172 ft | 166 kts | 282° |
| 2026-04-25 15:05 | 53.21979 | 6.11490 | 2183 ft | 166 kts | 282° |
| 2026-04-25 15:05 | 53.22167 | 6.09591 | 2182 ft | 166 kts | 282° |
| 2026-04-25 15:06 | 53.22541 | 6.05786 | 2177 ft | 165 kts | 283° |
| 2026-04-25 15:06 | 53.22764 | 6.03895 | 2183 ft | 167 kts | 280° |
| 2026-04-25 15:06 | 53.22813 | 6.01974 | 2131 ft | 162 kts | 275° |
| 2026-04-25 15:06 | 53.22835 | 6.00176 | 1956 ft | 153 kts | 275° |
| 2026-04-25 15:07 | 53.22850 | 5.98407 | 1734 ft | 151 kts | 274° |
| 2026-04-25 15:07 | 53.22847 | 5.96649 | 1689 ft | 148 kts | 274° |
| 2026-04-25 15:07 | 53.22851 | 5.94952 | 1686 ft | 148 kts | 274° |
| 2026-04-25 15:07 | 53.22858 | 5.93237 | 1678 ft | 148 kts | 274° |
| 2026-04-25 15:08 | 53.22862 | 5.91510 | 1685 ft | 150 kts | 274° |
| 2026-04-25 15:08 | 53.22862 | 5.89772 | 1600 ft | 150 kts | 275° |
| 2026-04-25 15:08 | 53.22861 | 5.88044 | 1395 ft | 148 kts | 274° |
| 2026-04-25 15:08 | 53.22861 | 5.86346 | 1188 ft | 145 kts | 275° |
| 2026-04-25 15:09 | 53.22861 | 5.84682 | 975 ft | 144 kts | 275° |
| 2026-04-25 15:09 | 53.22861 | 5.83003 | 760 ft | 146 kts | 275° |
| 2026-04-25 15:09 | 53.22861 | 5.80137 | 416 ft | 147 kts | 274° |
| 2026-04-25 15:10 | 53.22861 | 5.78428 | 223 ft | 147 kts | 276° |
| 2026-04-25 15:10 | 53.22856 | 5.76724 | 36 ft | 145 kts | 274° |
| 2026-04-25 15:10 | 53.22876 | 5.74936 | 20 ft | 15 kts | 304° |